首页
METAR-TAF:

METAR-TAF

机场 :

Mora Municipal Airport

Mora, 明尼蘇達州, 美国

纬度: 45-53-10N, 经度: 093-16-18W, 海拔: 309米

当前天气观测

该预报发布于17分钟前的08:16 UTC
静风
温度 8°C
湿度 100%
气压 1015 hPa
能見度: 16.1公里
天空无云

METAR: KJMR 190816Z AUTO 00000KT 10SM CLR 08/08 A2997 RMK AO2

时间: 03:33 (08:33 UTC)


TAF: 丢失

超过4000个机场的气象观测和天气预报(METAR&TAF报告)。

可查询的气象台以黄色和红色小点在地图上表示。

将鼠标移到小点上方,可查看气象台名称。

然后点击查看天气观测和预报。

如需切换地图:点击带黑十字的绿色按钮放大地图;点击带横线的绿色按钮缩小地图;或者点击绿色箭头查看邻近地区的地图。


METAR-TAF: